»·PEaware :: N72G CYYJ-KPDT

N72G :: CYYJ-KPDT

FLIGHT INFORMATION

Flight Status: Arrived
Operator: Privately registered:
United States
More flights under this callsign
Pilot: Joe Kennebeck (15257)
Aircraft: BOMBARDIER BD-100 CHALLENGER 300
(CL30)
More flights by this aircraft type
Origin: CYYJ Victoria Intl
Canada
Destination: KPDT Eastern Oreg Regl At Pendleto
United States
More flights between these airports :: More routes between these airports
Route: +CONDI V495 SEA V4 PDT
File this flight plan on PilotEdge
Remarks:
Altitude:
(Current/Filed)
29,000ft
Speed:
(Current/Filed)
360kts
Departed: 26-Jul-17 03:47 PM
Arrived: 26-Jul-17 04:43 PM
Distance/Time
Traveled:
257nm/0:56
Distance/Time
To Go:
Arrived

Flight Plot

Page will automatically refresh every two minutes.

Flight plan parsing failed; only flown route is shown


Map Options




Map Legend


Flown Route
Filed Route
Departure Airport
Arrival Airport
Navaid (VOR, NDB)
Fix

Horizontal Profiles

Position Reports

Time Latitude Longitude Heading Altitude Ground
Speed
26-Jul-17 15:37 48.645566 -123.419245 238 215ft 0kts
26-Jul-17 15:38 48.645566 -123.419245 238 215ft 0kts
26-Jul-17 15:39 48.645566 -123.419245 238 215ft 0kts
26-Jul-17 15:40 48.645566 -123.419245 238 215ft 0kts
26-Jul-17 15:41 48.645566 -123.419245 238 215ft 0kts
26-Jul-17 15:42 48.645566 -123.419245 238 215ft 0kts
26-Jul-17 15:43 48.645566 -123.419245 238 215ft 0kts
26-Jul-17 15:44 48.645566 -123.419245 238 215ft 0kts
26-Jul-17 15:45 48.645566 -123.419245 238 215ft 0kts
26-Jul-17 15:46 48.645566 -123.419245 238 215ft 0kts
26-Jul-17 15:47 48.646530 -123.420789 288 216ft 13kts
26-Jul-17 15:48 48.648687 -123.432408 286 216ft 35kts
26-Jul-17 15:49 48.651280 -123.438949 106 215ft 5kts
26-Jul-17 15:50 48.643369 -123.407419 134 1370ft 159kts
26-Jul-17 15:51 48.599580 -123.362390 146 5842ft 205kts
26-Jul-17 15:52 48.550921 -123.314683 152 10245ft 220kts
26-Jul-17 15:53 48.498107 -123.267512 152 14234ft 232kts
26-Jul-17 15:54 48.441649 -123.215918 152 17728ft 248kts
26-Jul-17 15:55 48.381268 -123.162474 154 20874ft 261kts
26-Jul-17 15:56 48.318656 -123.105092 154 23710ft 274kts
26-Jul-17 15:57 48.252521 -123.044521 153 26042ft 285kts
26-Jul-17 15:58 48.183586 -122.981564 153 27949ft 298kts
26-Jul-17 15:59 48.110796 -122.915305 152 29145ft 331kts
26-Jul-17 16:00 48.024221 -122.836658 152 29147ft 399kts
26-Jul-17 16:01 47.924549 -122.746429 151 29140ft 452kts
26-Jul-17 16:02 47.818352 -122.650755 151 29135ft 479kts
26-Jul-17 16:03 47.708386 -122.552165 151 29133ft 485kts
26-Jul-17 16:04 47.592913 -122.449204 151 29131ft 486kts
26-Jul-17 16:05 47.477598 -122.346934 152 29129ft 486kts
26-Jul-17 16:06 47.389657 -122.202221 127 29128ft 495kts
26-Jul-17 16:07 47.311830 -122.034581 126 29101ft 496kts
26-Jul-17 16:08 47.235264 -121.866762 126 29102ft 496kts
26-Jul-17 16:09 47.158352 -121.698575 125 29176ft 494kts
26-Jul-17 16:10 47.081660 -121.531780 125 29185ft 495kts
26-Jul-17 16:11 47.004273 -121.364505 125 29185ft 497kts
26-Jul-17 16:12 46.926953 -121.198379 126 29182ft 497kts
26-Jul-17 16:13 46.850304 -121.034666 126 28163ft 501kts
26-Jul-17 16:14 46.774084 -120.872806 126 25648ft 479kts
26-Jul-17 16:15 46.699126 -120.714570 126 23964ft 457kts
26-Jul-17 16:16 46.630013 -120.569430 126 23968ft 430kts
26-Jul-17 16:17 46.561078 -120.428308 131 23968ft 427kts
26-Jul-17 16:18 46.485558 -120.294732 131 21965ft 437kts
26-Jul-17 16:19 46.409806 -120.161293 131 19321ft 417kts
26-Jul-17 16:20 46.339229 -120.037538 131 17168ft 406kts
26-Jul-17 16:21 46.269113 -119.915012 131 15906ft 372kts
26-Jul-17 16:22 46.205035 -119.803697 131 14941ft 344kts
26-Jul-17 16:23 46.144501 -119.698963 131 14928ft 350kts
26-Jul-17 16:24 46.079326 -119.586621 131 14921ft 370kts
26-Jul-17 16:25 46.013800 -119.474047 131 14455ft 364kts
26-Jul-17 16:26 45.948715 -119.362768 131 12163ft 362kts
26-Jul-17 16:27 45.887305 -119.258077 131 10939ft 325kts
26-Jul-17 16:28 45.830081 -119.160915 131 10947ft 315kts
26-Jul-17 16:29 45.774074 -119.066155 132 10969ft 301kts
26-Jul-17 16:30 45.723974 -118.981623 132 10971ft 266kts
26-Jul-17 16:31 45.682064 -118.899685 123 10059ft 256kts
26-Jul-17 16:32 45.644331 -118.813553 123 8394ft 254kts
26-Jul-17 16:33 45.606791 -118.728594 123 7066ft 255kts
26-Jul-17 16:34 45.568751 -118.643093 123 6392ft 244kts
26-Jul-17 16:35 45.533637 -118.565496 123 6407ft 230kts
26-Jul-17 16:36 45.496382 -118.489603 126 6406ft 236kts
26-Jul-17 16:37 45.495167 -118.415001 10 6409ft 210kts
26-Jul-17 16:38 45.518732 -118.465878 275 6411ft 179kts
26-Jul-17 16:39 45.525963 -118.539227 300 6411ft 195kts
26-Jul-17 16:40 45.558433 -118.598888 307 5829ft 173kts
26-Jul-17 16:41 45.585650 -118.648288 306 4827ft 151kts
26-Jul-17 16:42 45.611995 -118.696101 307 3817ft 162kts
26-Jul-17 16:43 45.639462 -118.745919 307 2912ft 149kts
26-Jul-17 16:44 45.663478 -118.789503 306 2270ft 133kts
26-Jul-17 16:45 45.685606 -118.829711 306 1647ft 120kts
26-Jul-17 16:46 45.694497 -118.847836 179 1504ft 9kts

Navigation Log

Ident Type
Flight plan parsing failed, navigation log unavailable